Time;durP1;ratioP1;P1;durP2;ratioP2;P2;SDS_P1;SDS_P2;PMS_P1;PMS_P2;Temp;Humidity;BMP_temperature;BMP_pressure;BME280_temperature;BME280_humidity;BME280_pressure;Samples;Min_cycle;Max_cycle;Signal;HPM_P1;HPM_P2
2022/04/22 00:01:13;;;;;;;6.70;5.95;;;12.80;99.90;;;;;;5014806;28;20033;-72
2022/04/22 00:03:39;;;;;;;6.57;5.53;;;12.70;99.90;;;;;;5014690;28;20059;-72
2022/04/22 00:06:05;;;;;;;8.98;5.63;;;12.70;99.90;;;;;;5013855;28;20049;-72
2022/04/22 00:08:31;;;;;;;8.10;5.78;;;12.70;99.90;;;;;;5014696;28;20042;-72
2022/04/22 00:13:42;;;;;;;6.53;5.78;;;12.60;99.90;;;;;;5013838;28;20033;-72
2022/04/22 00:16:08;;;;;;;9.02;6.47;;;12.60;99.90;;;;;;5014123;28;20040;-72
2022/04/22 00:18:35;;;;;;;12.50;6.20;;;12.60;99.90;;;;;;5014190;28;20034;-72
2022/04/22 00:21:01;;;;;;;14.02;8.15;;;12.50;99.90;;;;;;5016781;28;20490;-73
2022/04/22 00:23:27;;;;;;;7.53;6.55;;;12.50;99.90;;;;;;5017440;28;20037;-72
2022/04/22 00:25:58;;;;;;;8.90;6.60;;;12.50;99.90;;;;;;5013310;28;20462;-72
2022/04/22 00:28:24;;;;;;;7.70;6.85;;;12.50;99.90;;;;;;5013638;28;20034;-72
2022/04/22 00:30:50;;;;;;;6.30;5.70;;;12.40;99.90;;;;;;5014156;28;20034;-72
2022/04/22 00:33:15;;;;;;;8.77;6.70;;;12.40;99.90;;;;;;5014101;28;20026;-72
2022/04/22 00:35:41;;;;;;;6.53;6.03;;;12.70;99.90;;;;;;5014883;28;20022;-73
2022/04/22 00:38:07;;;;;;;7.20;6.28;;;12.30;99.90;;;;;;5014178;28;20088;-72
2022/04/22 00:40:33;;;;;;;9.43;6.68;;;12.30;99.90;;;;;;5013368;28;20030;-72
2022/04/22 00:42:59;;;;;;;7.35;6.47;;;12.20;99.90;;;;;;5013677;28;20074;-72
2022/04/22 00:45:24;;;;;;;8.82;6.82;;;12.20;99.90;;;;;;5014192;28;20101;-72
2022/04/22 00:47:50;;;;;;;7.50;6.68;;;12.10;99.90;;;;;;5012908;28;20412;-73
2022/04/22 00:50:16;;;;;;;9.40;7.13;;;12.10;99.90;;;;;;5014055;28;20026;-73
2022/04/22 00:52:42;;;;;;;6.60;6.00;;;12.10;99.90;;;;;;5013883;28;20524;-72
2022/04/22 00:55:09;;;;;;;9.48;6.80;;;12.00;99.90;;;;;;5012505;28;20042;-72
2022/04/22 00:57:35;;;;;;;7.22;6.30;;;12.00;99.90;;;;;;5013703;28;20379;-72
2022/04/22 01:00:02;;;;;;;7.63;6.63;;;11.90;99.90;;;;;;5013552;28;20029;-72
2022/04/22 01:02:28;;;;;;;6.55;5.90;;;11.90;99.90;;;;;;5013096;28;20470;-72
2022/04/22 01:10:21;;;;;;;8.35;6.50;;;11.80;99.90;;;;;;5013676;28;20076;-73
2022/04/22 01:12:47;;;;;;;10.00;6.05;;;11.80;99.90;;;;;;5013440;28;20030;-73
2022/04/22 01:15:13;;;;;;;7.97;6.35;;;11.80;99.90;;;;;;5012874;28;20038;-71
2022/04/22 01:17:39;;;;;;;9.07;6.30;;;11.80;99.90;;;;;;5013335;28;20477;-71
2022/04/22 01:20:05;;;;;;;10.05;6.28;;;11.70;99.90;;;;;;5012995;28;20026;-72
2022/04/22 01:22:31;;;;;;;8.15;6.20;;;11.70;99.90;;;;;;5012355;28;20033;-71
2022/04/22 01:25:02;;;;;;;7.90;5.95;;;11.70;99.90;;;;;;5012845;28;20026;-71
2022/04/22 01:27:30;;;;;;;11.98;7.40;;;11.60;99.90;;;;;;5013286;28;20030;-71
2022/04/22 01:29:57;;;;;;;11.95;6.45;;;11.60;99.90;;;;;;5012291;28;20131;-72
2022/04/22 01:32:25;;;;;;;6.72;5.90;;;11.60;99.90;;;;;;5013250;28;20026;-72
2022/04/22 01:34:51;;;;;;;7.15;6.20;;;11.50;99.90;;;;;;5012660;28;20033;-72
2022/04/22 01:37:16;;;;;;;8.45;6.03;;;11.50;99.90;;;;;;5012208;28;20022;-72
2022/04/22 01:39:42;;;;;;;8.77;6.85;;;11.50;99.90;;;;;;5013079;28;20054;-71
2022/04/22 01:42:08;;;;;;;8.00;7.20;;;11.40;99.90;;;;;;5012802;28;20100;-71
2022/04/22 01:44:35;;;;;;;8.50;7.47;;;11.40;99.90;;;;;;5012083;28;20056;-71
2022/04/22 01:47:02;;;;;;;10.65;7.13;;;11.40;99.90;;;;;;5012711;28;20093;-71
2022/04/22 01:49:27;;;;;;;8.25;7.43;;;11.30;99.90;;;;;;5012829;28;20033;-73
2022/04/22 01:51:54;;;;;;;9.32;7.60;;;11.30;99.90;;;;;;5011701;28;20072;-71
2022/04/22 01:54:20;;;;;;;8.40;7.07;;;11.40;99.90;;;;;;5012776;28;20022;-72
2022/04/22 01:56:45;;;;;;;9.02;8.02;;;11.40;99.90;;;;;;5012430;28;20058;-71
2022/04/22 01:59:11;;;;;;;9.00;7.50;;;11.30;99.90;;;;;;5011622;28;20030;-71
2022/04/22 02:01:36;;;;;;;7.93;7.07;;;11.30;99.90;;;;;;5012633;28;20104;-72
2022/04/22 02:04:02;;;;;;;11.32;6.90;;;11.30;99.90;;;;;;5012361;28;20056;-71
2022/04/22 02:06:28;;;;;;;8.45;7.60;;;11.30;99.90;;;;;;5012031;28;20080;-72
2022/04/22 02:08:54;;;;;;;8.52;7.60;;;11.20;99.90;;;;;;5012426;28;20048;-72
2022/04/22 02:11:19;;;;;;;9.85;7.78;;;11.20;99.90;;;;;;5012004;28;20037;-71
2022/04/22 02:13:45;;;;;;;8.43;7.63;;;11.20;99.90;;;;;;5012330;28;20033;-71
2022/04/22 02:16:11;;;;;;;7.43;6.82;;;11.10;99.90;;;;;;5012162;28;20030;-73
2022/04/22 02:18:37;;;;;;;8.00;7.25;;;11.00;99.90;;;;;;5011818;28;20470;-71
2022/04/22 02:21:04;;;;;;;12.18;7.45;;;11.00;99.90;;;;;;5011991;28;20037;-71
2022/04/22 02:23:30;;;;;;;9.90;7.00;;;10.90;99.90;;;;;;5012815;28;20030;-72
2022/04/22 02:25:58;;;;;;;7.60;6.90;;;10.80;99.90;;;;;;5011564;28;20022;-71
2022/04/22 02:28:34;;;;;;;9.75;6.95;;;10.80;99.90;;;;;;5012405;28;20069;-71
2022/04/22 02:31:06;;;;;;;8.18;7.47;;;10.70;99.90;;;;;;5012188;28;20088;-72
2022/04/22 02:33:37;;;;;;;9.05;7.50;;;10.70;99.90;;;;;;5011511;28;20029;-72
2022/04/22 02:36:03;;;;;;;;;;;10.60;99.90;;;;;;5012670;28;20026;-72
2022/04/22 02:38:30;;;;;;;9.20;6.97;;;10.60;99.90;;;;;;5027381;28;19918;-72
2022/04/22 02:46:25;;;;;;;7.85;7.13;;;10.50;99.90;;;;;;5011706;28;20041;-72
2022/04/22 02:48:51;;;;;;;13.18;7.10;;;10.50;99.90;;;;;;5011887;28;20482;-72
2022/04/22 02:51:17;;;;;;;7.68;6.55;;;10.50;99.90;;;;;;5012104;28;20018;-72
2022/04/22 02:53:43;;;;;;;10.18;8.23;;;10.50;99.90;;;;;;5011492;28;20030;-72
2022/04/22 02:56:10;;;;;;;16.10;7.60;;;10.60;99.90;;;;;;5011664;28;20042;-72
2022/04/22 02:58:36;;;;;;;13.63;7.63;;;10.60;99.90;;;;;;5011858;28;20022;-72
2022/04/22 03:01:02;;;;;;;8.02;7.15;;;10.60;99.90;;;;;;5011281;28;20113;-72
2022/04/22 03:03:28;;;;;;;10.77;6.82;;;10.50;99.90;;;;;;5012147;28;20026;-72
2022/04/22 03:05:54;;;;;;;7.63;6.90;;;10.60;99.90;;;;;;5011689;28;20041;-72
2022/04/22 03:08:19;;;;;;;8.25;7.03;;;10.60;99.90;;;;;;5011258;28;20121;-71
2022/04/22 03:10:47;;;;;;;7.43;6.68;;;10.50;99.90;;;;;;5011888;28;20462;-72
2022/04/22 03:13:13;;;;;;;7.90;7.13;;;10.50;99.90;;;;;;5011904;28;20497;-72
2022/04/22 03:15:39;;;;;;;8.18;6.53;;;10.50;99.90;;;;;;5011013;28;20022;-72
2022/04/22 03:18:05;;;;;;;8.70;7.38;;;10.60;99.90;;;;;;5011357;28;20486;-72
2022/04/22 03:20:30;;;;;;;8.85;6.97;;;10.50;99.90;;;;;;5012110;28;20033;-71
2022/04/22 03:22:56;;;;;;;8.63;7.07;;;10.50;99.90;;;;;;5010989;28;20069;-72
2022/04/22 03:25:24;;;;;;;10.15;6.75;;;10.40;99.90;;;;;;5013645;28;20021;-72
2022/04/22 03:27:51;;;;;;;8.32;7.07;;;10.40;99.90;;;;;;5013772;28;20121;-71
2022/04/22 03:30:17;;;;;;;7.22;6.50;;;10.30;99.90;;;;;;5011634;28;20033;-71
2022/04/22 03:32:43;;;;;;;11.20;6.57;;;10.20;99.90;;;;;;5012201;28;20402;-71
2022/04/22 03:35:09;;;;;;;7.75;6.25;;;10.10;99.90;;;;;;5014937;28;20485;-73
2022/04/22 03:37:34;;;;;;;7.45;6.47;;;10.00;99.90;;;;;;5014793;28;20041;-71
2022/04/22 03:40:00;;;;;;;7.90;6.68;;;10.00;99.90;;;;;;5014844;28;20026;-72
2022/04/22 03:42:29;;;;;;;13.00;6.07;;;9.90;99.90;;;;;;5015208;28;20018;-72
2022/04/22 03:44:56;;;;;;;10.82;6.88;;;9.90;99.90;;;;;;5014381;28;20048;-73
2022/04/22 03:47:22;;;;;;;7.38;6.50;;;9.80;99.90;;;;;;5014911;28;20101;-72
2022/04/22 03:49:48;;;;;;;9.60;6.47;;;9.70;99.90;;;;;;5014213;28;20022;-72
2022/04/22 03:52:14;;;;;;;9.98;5.75;;;9.70;99.90;;;;;;5015191;28;20496;-72
2022/04/22 03:54:39;;;;;;;11.00;5.95;;;9.70;99.90;;;;;;5014693;28;20034;-72
2022/04/22 03:59:49;;;;;;;8.63;6.28;;;9.60;99.90;;;;;;5014523;28;20605;-72
2022/04/22 04:02:15;;;;;;;13.35;5.93;;;9.70;99.90;;;;;;5014717;28;20109;-72
2022/04/22 04:04:40;;;;;;;10.65;6.72;;;9.60;99.90;;;;;;5013865;28;20525;-72
2022/04/22 04:07:06;;;;;;;9.80;6.68;;;9.60;99.90;;;;;;5014284;28;20070;-72
2022/04/22 04:17:43;;;;;;;9.57;7.47;;;9.60;99.90;;;;;;5013785;28;20036;-72
2022/04/22 04:25:41;;;;;;;9.70;7.47;;;9.60;99.90;;;;;;5013267;28;20072;-72
2022/04/22 04:28:10;;;;;;;12.73;8.27;;;9.60;99.90;;;;;;5013724;28;20057;-71
2022/04/22 04:30:40;;;;;;;9.88;7.72;;;9.70;99.90;;;;;;5014358;28;20084;-71
2022/04/22 04:33:06;;;;;;;9.10;7.63;;;9.60;99.90;;;;;;5013171;28;20032;-71
2022/04/22 04:35:34;;;;;;;9.63;7.55;;;9.60;99.90;;;;;;5014185;28;20033;-72
2022/04/22 04:38:00;;;;;;;13.32;8.68;;;9.60;99.90;;;;;;5013802;28;20045;-72
2022/04/22 04:40:26;;;;;;;10.40;7.63;;;9.60;99.90;;;;;;5013308;28;20486;-72
2022/04/22 04:42:53;;;;;;;9.38;7.72;;;9.60;99.90;;;;;;5013540;28;20033;-72
2022/04/22 04:45:19;;;;;;;11.07;8.05;;;9.60;99.90;;;;;;5013657;28;20022;-72
2022/04/22 04:47:45;;;;;;;10.57;8.40;;;9.70;99.90;;;;;;5013030;28;20038;-72
2022/04/22 04:50:11;;;;;;;10.30;7.97;;;9.70;99.90;;;;;;5013423;28;20025;-72
2022/04/22 04:52:37;;;;;;;12.05;8.05;;;9.70;99.90;;;;;;5013693;28;20540;-72
2022/04/22 04:55:07;;;;;;;11.80;8.20;;;9.70;99.90;;;;;;5012341;28;20049;-72
2022/04/22 04:57:33;;;;;;;10.35;9.20;;;9.80;99.90;;;;;;5014528;28;20018;-72
2022/04/22 04:59:59;;;;;;;13.95;8.85;;;9.90;99.90;;;;;;5017132;28;20109;-72
2022/04/22 05:02:25;;;;;;;12.52;8.90;;;9.80;99.90;;;;;;5013573;28;20018;-72
2022/04/22 05:04:51;;;;;;;16.45;9.52;;;9.80;99.90;;;;;;5013210;28;20544;-72
2022/04/22 05:07:17;;;;;;;13.00;9.65;;;9.80;99.90;;;;;;5012698;28;20800;-72
2022/04/22 05:09:43;;;;;;;12.93;9.20;;;9.90;99.90;;;;;;5013261;28;20034;-72
2022/04/22 05:12:11;;;;;;;15.48;9.32;;;9.90;99.90;;;;;;5013261;28;20429;-72
2022/04/22 05:14:37;;;;;;;13.93;9.18;;;9.90;99.90;;;;;;5012850;28;20022;-72
2022/04/22 05:17:03;;;;;;;12.07;9.13;;;10.00;99.90;;;;;;5013105;28;20100;-73
2022/04/22 05:19:29;;;;;;;12.45;9.38;;;10.00;99.90;;;;;;5013281;28;20108;-73
2022/04/22 05:21:55;;;;;;;13.88;9.15;;;10.10;99.90;;;;;;5012236;28;20131;-72
2022/04/22 05:24:21;;;;;;;9.82;8.93;;;10.10;99.90;;;;;;5013140;28;20075;-72
2022/04/22 05:26:47;;;;;;;13.00;9.98;;;10.10;99.90;;;;;;5013296;28;20026;-72
2022/04/22 05:34:41;;;;;;;11.05;9.00;;;10.10;99.90;;;;;;5013241;28;20033;-72
2022/04/22 05:37:07;;;;;;;12.90;9.13;;;10.10;99.90;;;;;;5011856;28;20030;-73
2022/04/22 05:39:32;;;;;;;16.83;9.90;;;10.10;99.90;;;;;;5013144;28;20026;-72
2022/04/22 05:42:00;;;;;;;11.07;8.82;;;10.20;99.90;;;;;;5012629;28;20018;-72
2022/04/22 05:44:26;;;;;;;11.10;9.90;;;10.20;99.90;;;;;;5012084;28;20033;-72
2022/04/22 05:46:51;;;;;;;10.85;9.57;;;10.10;99.90;;;;;;5012563;28;20041;-72
2022/04/22 05:49:18;;;;;;;10.77;9.68;;;10.20;99.90;;;;;;5012134;28;20038;-72
2022/04/22 05:51:43;;;;;;;10.60;9.50;;;10.20;99.90;;;;;;5012929;28;20029;-73
2022/04/22 05:54:09;;;;;;;10.38;9.32;;;10.30;99.90;;;;;;5012632;28;20470;-72
2022/04/22 05:56:35;;;;;;;11.70;10.15;;;10.30;99.90;;;;;;5011858;28;20099;-72
2022/04/22 05:59:02;;;;;;;11.82;10.55;;;10.40;99.90;;;;;;5012808;28;20030;-73
2022/04/22 06:01:28;;;;;;;10.32;9.32;;;10.40;99.90;;;;;;5012709;28;20073;-73
2022/04/22 06:03:53;;;;;;;13.57;9.68;;;10.50;99.90;;;;;;5011619;28;20096;-72
2022/04/22 06:06:19;;;;;;;11.65;9.85;;;10.50;99.90;;;;;;5012629;28;20030;-72
2022/04/22 06:11:49;;;;;;;11.27;10.15;;;10.70;99.90;;;;;;5011690;28;20029;-73
2022/04/22 06:14:15;;;;;;;10.48;9.32;;;10.70;99.90;;;;;;5013129;28;20026;-73
2022/04/22 06:16:41;;;;;;;10.93;9.32;;;10.70;99.90;;;;;;5012590;28;20021;-72
2022/04/22 06:19:06;;;;;;;14.57;8.98;;;10.70;99.90;;;;;;5011702;28;20022;-72
2022/04/22 06:21:32;;;;;;;10.90;9.55;;;10.80;99.90;;;;;;5012602;28;20381;-73
2022/04/22 06:23:57;;;;;;;13.45;10.20;;;10.90;99.90;;;;;;5012001;28;20639;-73
2022/04/22 06:26:23;;;;;;;10.80;9.27;;;10.90;99.90;;;;;;5011473;28;20036;-73
2022/04/22 06:28:48;;;;;;;14.88;9.75;;;11.00;99.90;;;;;;5011822;28;20108;-72
2022/04/22 06:31:14;;;;;;;11.30;10.10;;;11.00;99.90;;;;;;5012508;28;20024;-73
2022/04/22 06:33:40;;;;;;;10.27;9.27;;;11.00;99.90;;;;;;5011553;28;20033;-73
2022/04/22 06:36:12;;;;;;;14.63;10.13;;;11.00;99.90;;;;;;5012281;28;20076;-73
2022/04/22 06:38:39;;;;;;;13.73;10.95;;;11.10;99.90;;;;;;5011934;28;20501;-73
2022/04/22 06:46:34;;;;;;;12.27;10.00;;;11.20;99.90;;;;;;5011874;28;20576;-73
2022/04/22 06:48:59;;;;;;;11.50;9.98;;;11.30;99.90;;;;;;5011697;28;20034;-73
2022/04/22 06:51:25;;;;;;;11.75;10.55;;;11.40;99.90;;;;;;5012234;28;20359;-73
2022/04/22 06:53:54;;;;;;;12.45;10.45;;;11.40;99.90;;;;;;5011063;28;20018;-73
2022/04/22 06:56:26;;;;;;;11.50;10.32;;;11.50;99.90;;;;;;5011920;28;20134;-73
2022/04/22 06:58:52;;;;;;;14.57;11.25;;;11.60;99.90;;;;;;5011888;28;20052;-73
2022/04/22 07:01:18;;;;;;;13.18;9.25;;;11.60;99.90;;;;;;5011479;28;20454;-73
2022/04/22 07:03:43;;;;;;;15.18;11.50;;;11.70;99.90;;;;;;5012068;28;20315;-73
2022/04/22 07:06:09;;;;;;;12.25;10.77;;;11.80;99.90;;;;;;5011832;28;20474;-73
2022/04/22 07:08:35;;;;;;;15.07;10.63;;;11.80;99.90;;;;;;5014397;28;20034;-73
2022/04/22 07:11:03;;;;;;;12.52;10.35;;;11.80;99.90;;;;;;5015612;28;20032;-72
2022/04/22 07:13:32;;;;;;;13.63;11.60;;;11.80;99.90;;;;;;5015862;28;20026;-73
2022/04/22 07:15:59;;;;;;;14.25;10.95;;;11.90;99.90;;;;;;5015355;28;20060;-73
2022/04/22 07:18:25;;;;;;;13.65;10.98;;;12.00;99.90;;;;;;5015533;28;20029;-73
2022/04/22 07:20:51;;;;;;;12.80;11.45;;;12.10;99.90;;;;;;5014591;28;20459;-73
2022/04/22 07:23:17;;;;;;;12.95;11.55;;;12.10;99.90;;;;;;5015438;28;20053;-73
2022/04/22 07:25:44;;;;;;;13.23;11.00;;;12.10;99.90;;;;;;5015610;28;20018;-73
2022/04/22 07:28:12;;;;;;;15.55;11.77;;;12.10;99.90;;;;;;5014512;28;20180;-73
2022/04/22 07:30:39;;;;;;;14.80;11.88;;;12.20;99.90;;;;;;5015315;28;20025;-73
2022/04/22 07:33:06;;;;;;;14.40;11.63;;;12.20;99.90;;;;;;5015116;28;20026;-73
2022/04/22 07:35:32;;;;;;;14.48;12.38;;;12.20;99.90;;;;;;5014620;28;20029;-73
2022/04/22 07:37:58;;;;;;;14.02;12.38;;;12.30;99.90;;;;;;5015292;28;20572;-73
2022/04/22 07:40:24;;;;;;;13.20;11.85;;;12.40;99.90;;;;;;5015250;28;20033;-73
2022/04/22 07:48:22;;;;;;;12.90;11.20;;;12.50;99.90;;;;;;5015098;28;20052;-73
2022/04/22 07:50:49;;;;;;;15.07;12.13;;;12.60;99.90;;;;;;5014214;28;20101;-73
2022/04/22 07:53:18;;;;;;;15.38;11.68;;;12.60;99.90;;;;;;5015100;28;20056;-73
2022/04/22 07:55:44;;;;;;;16.02;11.90;;;12.80;99.90;;;;;;5014268;28;20511;-73
2022/04/22 07:58:13;;;;;;;17.00;11.93;;;13.00;99.90;;;;;;5014443;28;20034;-73
2022/04/22 08:00:43;;;;;;;15.75;11.70;;;12.80;99.90;;;;;;5014679;28;20054;-73
2022/04/22 08:03:09;;;;;;;14.35;10.30;;;12.90;99.90;;;;;;5013994;28;20100;-73
2022/04/22 08:05:35;;;;;;;15.70;12.55;;;13.00;99.90;;;;;;5015247;28;20033;-73
2022/04/22 08:08:01;;;;;;;17.90;11.10;;;13.10;99.90;;;;;;5014281;28;20383;-72
2022/04/22 08:10:27;;;;;;;14.18;10.05;;;13.20;99.90;;;;;;5013845;28;20041;-73
2022/04/22 08:12:53;;;;;;;14.65;10.95;;;13.30;99.90;;;;;;5014543;28;20030;-72
2022/04/22 08:15:21;;;;;;;15.77;10.45;;;13.30;99.90;;;;;;5014675;28;20517;-73
2022/04/22 08:17:48;;;;;;;12.20;10.40;;;13.40;99.90;;;;;;5014065;28;20029;-73
2022/04/22 08:20:14;;;;;;;11.32;9.27;;;13.50;99.90;;;;;;5013701;28;20036;-72
2022/04/22 08:22:40;;;;;;;12.35;10.45;;;13.50;99.90;;;;;;5014358;28;20113;-72
2022/04/22 08:25:06;;;;;;;12.15;10.02;;;13.60;99.90;;;;;;5013268;28;20493;-72
2022/04/22 08:27:31;;;;;;;13.43;11.32;;;13.60;99.90;;;;;;5014205;28;20030;-72
2022/04/22 08:29:59;;;;;;;14.50;11.25;;;13.70;99.90;;;;;;5013830;28;20462;-72
2022/04/22 08:32:25;;;;;;;13.70;11.45;;;13.70;99.90;;;;;;5013531;28;20030;-72
2022/04/22 08:34:51;;;;;;;14.00;11.75;;;13.70;99.90;;;;;;5013958;28;20061;-72
2022/04/22 08:37:17;;;;;;;15.20;12.00;;;13.80;99.90;;;;;;5014266;28;20068;-74
2022/04/22 08:39:43;;;;;;;15.40;11.48;;;13.90;99.90;;;;;;5013852;28;20375;-73
2022/04/22 08:42:11;;;;;;;13.52;10.18;;;13.80;99.90;;;;;;5013830;28;20152;-75
2022/04/22 08:44:37;;;;;;;13.63;12.13;;;13.90;99.90;;;;;;5013916;28;20041;-72
2022/04/22 08:49:59;;;;;;;14.23;12.38;;;13.90;99.90;;;;;;5013968;28;20137;-73
2022/04/22 08:52:35;;;;;;;13.68;10.43;;;14.00;99.90;;;;;;5015111;28;20071;-72
2022/04/22 08:55:04;;;;;;;12.27;9.82;;;14.10;99.90;;;;;;5015095;28;20078;-72
2022/04/22 08:57:30;;;;;;;12.85;10.95;;;14.00;99.90;;;;;;5013855;28;20026;-73
2022/04/22 09:00:04;;;;;;;13.20;10.98;;;14.10;99.90;;;;;;5012845;28;20029;-73
2022/04/22 09:02:33;;;;;;;15.43;10.35;;;14.20;99.90;;;;;;5013675;28;20022;-72
2022/04/22 09:04:59;;;;;;;13.10;10.40;;;14.30;99.90;;;;;;5013399;28;20095;-73
2022/04/22 09:07:27;;;;;;;13.98;10.02;;;14.30;99.90;;;;;;5012785;28;20371;-73
2022/04/22 09:09:53;;;;;;;14.20;9.70;;;14.50;99.90;;;;;;5013519;28;20045;-72
2022/04/22 09:12:25;;;;;;;12.95;9.38;;;14.70;99.90;;;;;;5013640;28;20142;-72
2022/04/22 09:14:58;;;;;;;15.23;10.18;;;15.00;99.90;;;;;;5012482;28;20037;-73
2022/04/22 09:17:29;;;;;;;12.40;9.30;;;15.00;99.90;;;;;;5013449;28;20030;-72
2022/04/22 09:19:57;;;;;;;13.80;9.93;;;15.00;99.90;;;;;;5013195;28;20037;-72
2022/04/22 09:22:28;;;;;;;10.13;9.05;;;14.80;99.90;;;;;;5012673;28;20037;-72
2022/04/22 09:24:57;;;;;;;;;;;14.80;99.90;;;;;;5013358;28;20109;-72
2022/04/22 09:27:42;;;;;;;11.48;8.68;;;14.90;99.90;;;;;;5012424;28;19906;-73
2022/04/22 09:30:11;;;;;;;10.73;8.35;;;15.00;99.90;;;;;;5012694;28;20814;-72
2022/04/22 09:32:41;;;;;;;10.55;8.85;;;15.10;99.90;;;;;;5013103;28;20037;-72
2022/04/22 09:35:06;;;;;;;16.65;9.52;;;15.20;99.90;;;;;;5015331;28;20038;-72
2022/04/22 09:43:00;;;;;;;9.38;8.05;;;15.30;99.90;;;;;;5012119;28;20033;-71
2022/04/22 09:45:36;;;;;;;9.60;8.55;;;15.40;99.90;;;;;;5012985;28;20029;-72
2022/04/22 09:48:15;;;;;;;11.65;8.75;;;15.50;99.90;;;;;;5012515;28;20037;-72
2022/04/22 09:50:54;;;;;;;12.77;8.85;;;15.60;99.90;;;;;;5012620;28;20026;-73
2022/04/22 09:53:33;;;;;;;8.65;7.80;;;15.70;99.70;;;;;;5013019;28;20022;-73
2022/04/22 09:56:05;;;;;;;10.48;8.63;;;15.80;99.30;;;;;;5011652;28;20042;-73
2022/04/22 09:58:31;;;;;;;11.30;8.02;;;15.90;99.00;;;;;;5012813;28;20033;-73
2022/04/22 10:01:01;;;;;;;9.43;8.38;;;15.90;99.00;;;;;;5011180;28;20394;-73
2022/04/22 10:03:37;;;;;;;9.40;7.95;;;15.90;98.70;;;;;;5011942;28;20087;-73
2022/04/22 10:06:05;;;;;;;9.15;8.25;;;15.90;98.70;;;;;;5012469;28;20033;-72
2022/04/22 10:08:32;;;;;;;8.82;7.93;;;15.90;98.60;;;;;;5012582;28;20038;-72
2022/04/22 10:11:00;;;;;;;9.80;7.65;;;16.00;98.20;;;;;;5011363;28;20486;-73
2022/04/22 10:13:39;;;;;;;9.98;6.65;;;16.00;97.90;;;;;;5012410;28;20388;-73
2022/04/22 10:16:08;;;;;;;8.07;7.23;;;16.00;97.90;;;;;;5012089;28;20022;-73
2022/04/22 10:18:34;;;;;;;8.80;6.57;;;16.10;97.60;;;;;;5011925;28;20152;-72
2022/04/22 10:21:02;;;;;;;7.93;6.70;;;16.10;97.40;;;;;;5012346;28;20105;-73
2022/04/22 10:23:29;;;;;;;8.52;6.53;;;16.20;97.20;;;;;;5011771;28;20045;-73
2022/04/22 10:25:55;;;;;;;12.63;6.47;;;16.20;96.40;;;;;;5012249;28;20053;-72
2022/04/22 10:28:22;;;;;;;8.05;7.18;;;16.30;96.60;;;;;;5012261;28;20037;-73
2022/04/22 10:30:51;;;;;;;8.10;6.43;;;16.20;96.40;;;;;;5011563;28;20036;-72
2022/04/22 10:33:17;;;;;;;12.63;7.40;;;16.30;96.10;;;;;;5012404;28;20030;-73
2022/04/22 10:35:44;;;;;;;10.80;6.30;;;16.30;96.50;;;;;;5012554;28;20036;-73
2022/04/22 10:38:38;;;;;;;9.13;7.25;;;16.40;96.80;;;;;;5011369;28;20030;-73
2022/04/22 10:41:12;;;;;;;7.45;6.82;;;16.50;95.70;;;;;;5013805;28;20068;-73
2022/04/22 10:43:39;;;;;;;8.32;7.22;;;16.50;95.80;;;;;;5016032;28;20088;-73
2022/04/22 10:49:10;;;;;;;8.15;7.10;;;16.60;95.80;;;;;;5015951;28;20103;-72
2022/04/22 10:52:11;;;;;;;10.55;6.95;;;16.70;95.60;;;;;;5015366;28;20034;-72
2022/04/22 10:54:52;;;;;;;10.15;7.15;;;16.80;95.50;;;;;;5016019;28;20039;-72
2022/04/22 10:57:33;;;;;;;8.93;6.88;;;16.80;95.30;;;;;;5016006;28;20026;-72
2022/04/22 11:00:09;;;;;;;9.95;6.68;;;16.70;95.30;;;;;;5013764;28;20064;-73
2022/04/22 11:02:42;;;;;;;11.20;7.55;;;16.80;95.90;;;;;;5015901;28;20486;-72
2022/04/22 11:05:19;;;;;;;7.60;6.75;;;16.60;95.50;;;;;;5017027;28;20068;-73
2022/04/22 11:07:51;;;;;;;7.90;6.43;;;16.60;95.50;;;;;;5016997;28;20490;-72
2022/04/22 11:10:20;;;;;;;6.95;5.95;;;16.60;95.40;;;;;;5016401;28;20030;-72
2022/04/22 11:13:04;;;;;;;7.65;6.70;;;16.70;94.80;;;;;;5015041;28;20378;-71
2022/04/22 11:15:42;;;;;;;6.50;5.90;;;16.70;94.50;;;;;;5016250;28;20076;-72
2022/04/22 11:18:08;;;;;;;8.57;6.38;;;16.80;94.40;;;;;;5015373;28;20144;-72
2022/04/22 11:20:42;;;;;;;7.63;6.50;;;16.80;94.40;;;;;;5014764;28;20568;-71
2022/04/22 11:23:12;;;;;;;7.35;6.55;;;17.90;94.60;;;;;;5015260;28;20357;-72
2022/04/22 11:25:38;;;;;;;8.98;6.18;;;17.30;94.60;;;;;;5015795;28;20415;-72
2022/04/22 11:28:07;;;;;;;9.70;6.47;;;17.50;93.60;;;;;;5014412;28;20038;-72
2022/04/22 11:30:33;;;;;;;7.22;6.13;;;17.60;93.70;;;;;;5015627;28;20033;-72
2022/04/22 11:33:24;;;;;;;8.00;6.25;;;17.90;93.20;;;;;;5015067;28;20156;-73
2022/04/22 11:35:53;;;;;;;6.10;5.47;;;18.00;92.30;;;;;;5015123;28;20163;-74
2022/04/22 11:38:23;;;;;;;7.43;5.85;;;17.70;92.00;;;;;;5015474;28;20425;-74
2022/04/22 11:40:51;;;;;;;9.00;5.47;;;17.50;92.30;;;;;;5014360;28;20026;-74
2022/04/22 11:43:21;;;;;;;10.13;6.60;;;17.30;92.40;;;;;;5015592;28;20498;-73
2022/04/22 11:45:48;;;;;;;9.77;6.22;;;17.30;92.90;;;;;;5015352;28;20030;-73
2022/04/22 11:48:22;;;;;;;8.45;6.18;;;17.20;93.20;;;;;;5014365;28;20053;-73
2022/04/22 11:50:48;;;;;;;6.65;6.00;;;17.20;93.10;;;;;;5014570;28;20109;-74
2022/04/22 11:53:20;;;;;;;7.78;6.45;;;17.20;93.60;;;;;;5014019;28;20120;-73
2022/04/22 11:55:47;;;;;;;12.35;6.18;;;17.20;92.80;;;;;;5013886;28;20045;-73
2022/04/22 11:58:17;;;;;;;10.38;6.43;;;17.20;92.70;;;;;;5014843;28;20046;-73
2022/04/22 12:06:16;;;;;;;6.03;5.43;;;17.10;92.00;;;;;;5014883;28;20513;-73
2022/04/22 12:08:56;;;;;;;6.97;5.03;;;17.10;92.20;;;;;;5014570;28;20038;-73
2022/04/22 12:11:24;;;;;;;5.97;5.33;;;17.20;92.40;;;;;;5014454;28;20034;-73
2022/04/22 12:13:51;;;;;;;6.15;5.65;;;17.30;91.70;;;;;;5014371;28;20636;-73
2022/04/22 12:16:35;;;;;;;11.40;5.50;;;17.30;91.80;;;;;;5013883;28;20037;-73
2022/04/22 12:19:01;;;;;;;7.15;5.30;;;17.50;91.60;;;;;;5014324;28;20097;-73
2022/04/22 12:21:32;;;;;;;6.57;5.15;;;17.50;91.80;;;;;;5014583;28;20071;-73
2022/04/22 12:24:04;;;;;;;6.07;5.05;;;17.70;91.60;;;;;;5013260;28;20512;-72
2022/04/22 12:26:34;;;;;;;9.52;5.68;;;17.70;91.20;;;;;;5014301;28;20026;-72
2022/04/22 12:29:02;;;;;;;6.50;4.13;;;17.80;90.10;;;;;;5013957;28;20065;-72
2022/04/22 12:31:29;;;;;;;9.57;5.35;;;17.70;90.30;;;;;;5013660;28;20109;-72
2022/04/22 12:34:03;;;;;;;11.35;4.78;;;17.70;89.30;;;;;;5014175;28;20037;-71
2022/04/22 12:36:30;;;;;;;4.53;4.10;;;17.80;90.10;;;;;;5014436;28;20022;-73
2022/04/22 12:38:56;;;;;;;6.35;4.10;;;17.80;89.40;;;;;;5013304;28;20037;-73
2022/04/22 12:41:25;;;;;;;6.13;4.13;;;17.70;88.00;;;;;;5013975;28;20069;-72
2022/04/22 12:43:55;;;;;;;7.35;4.28;;;17.70;89.50;;;;;;5013727;28;20124;-73
2022/04/22 12:52:09;;;;;;;6.05;3.85;;;17.60;89.30;;;;;;5012954;28;20033;-73
2022/04/22 12:54:36;;;;;;;11.02;4.63;;;17.80;88.30;;;;;;5013666;28;20057;-72
2022/04/22 12:57:04;;;;;;;4.05;3.75;;;18.00;87.10;;;;;;5013433;28;20045;-72
2022/04/22 12:59:43;;;;;;;9.95;3.67;;;18.20;86.10;;;;;;5013155;28;20038;-73
2022/04/22 13:02:10;;;;;;;7.80;4.68;;;18.40;85.10;;;;;;5013335;28;20022;-72
2022/04/22 13:04:50;;;;;;;5.40;3.75;;;18.60;85.00;;;;;;5013325;28;20030;-72
2022/04/22 13:07:15;;;;;;;4.97;3.80;;;18.60;84.40;;;;;;5013130;28;20079;-73
2022/04/22 13:09:41;;;;;;;8.70;4.32;;;18.80;85.00;;;;;;5013483;28;20125;-72
2022/04/22 13:12:07;;;;;;;5.82;4.65;;;19.10;85.50;;;;;;5013260;28;20422;-73
2022/04/22 13:14:33;;;;;;;8.48;4.55;;;19.30;85.60;;;;;;5012918;28;20037;-73
2022/04/22 13:17:00;;;;;;;4.53;4.13;;;19.60;86.40;;;;;;5013084;28;20034;-71
2022/04/22 13:19:25;;;;;;;5.13;3.70;;;19.80;85.10;;;;;;5012526;28;20072;-74
2022/04/22 13:21:51;;;;;;;5.25;3.72;;;20.00;82.50;;;;;;5013388;28;20018;-72
2022/04/22 13:24:16;;;;;;;5.18;4.22;;;20.10;81.90;;;;;;5013567;28;20026;-72
2022/04/22 13:26:42;;;;;;;3.72;3.20;;;20.20;80.90;;;;;;5013031;28;20021;-72
2022/04/22 13:29:08;;;;;;;3.90;3.50;;;20.10;78.60;;;;;;5012982;28;20113;-72
2022/04/22 13:31:35;;;;;;;4.05;3.58;;;19.90;79.00;;;;;;5013980;28;20088;-73
2022/04/22 13:34:02;;;;;;;3.28;2.97;;;19.90;79.40;;;;;;5012021;28;20037;-72
2022/04/22 13:36:27;;;;;;;6.63;4.00;;;19.90;80.00;;;;;;5013201;28;20084;-72
2022/04/22 13:38:53;;;;;;;7.45;3.45;;;20.10;78.20;;;;;;5012891;28;20026;-72
2022/04/22 13:41:18;;;;;;;5.95;3.85;;;20.10;77.90;;;;;;5012756;28;20026;-73
2022/04/22 13:43:44;;;;;;;4.85;3.58;;;20.30;77.70;;;;;;5013213;28;20036;-73
2022/04/22 13:54:22;;;;;;;3.90;3.53;;;20.00;76.00;;;;;;5013608;28;20437;-73
2022/04/22 13:56:49;;;;;;;5.55;3.50;;;19.80;76.30;;;;;;5011537;28;20038;-73
2022/04/22 13:59:15;;;;;;;5.97;3.67;;;19.80;76.80;;;;;;5012677;28;20537;-73
2022/04/22 14:01:41;;;;;;;8.40;4.13;;;19.90;76.60;;;;;;5012483;28;20057;-73
2022/04/22 14:04:07;;;;;;;8.82;4.28;;;20.00;76.20;;;;;;5012457;28;20050;-72